Time;durP1;ratioP1;P1;durP2;ratioP2;P2;SDS_P1;SDS_P2;PMS_P1;PMS_P2;Temp;Humidity;BMP_temperature;BMP_pressure;BME280_temperature;BME280_humidity;BME280_pressure;Samples;Min_cycle;Max_cycle;Signal;HPM_P1;HPM_P2
2021/12/04 00:02:03;;;;;;;19.60;12.40;;;4.10;99.90;;;;;;5093621;28;20436;-84
2021/12/04 00:04:34;;;;;;;15.53;11.87;;;4.10;99.90;;;;;;5092363;28;20891;-86
2021/12/04 00:07:01;;;;;;;18.17;12.77;;;4.10;99.90;;;;;;5091499;28;20418;-84
2021/12/04 00:09:28;;;;;;;15.00;12.17;;;4.10;99.90;;;;;;5094926;28;20420;-87
2021/12/04 00:11:55;;;;;;;16.40;11.97;;;4.10;99.90;;;;;;5094382;28;20413;-84
2021/12/04 00:14:21;;;;;;;17.00;11.10;;;4.10;99.90;;;;;;5094502;28;20410;-82
2021/12/04 00:16:47;;;;;;;17.90;13.03;;;4.10;99.90;;;;;;5094335;28;20415;-84
2021/12/04 00:19:13;;;;;;;18.13;13.53;;;4.10;99.90;;;;;;5094051;28;20410;-82
2021/12/04 00:21:39;;;;;;;14.43;10.93;;;4.10;99.90;;;;;;5093924;28;20170;-82
2021/12/04 00:24:05;;;;;;;17.00;13.23;;;4.10;99.90;;;;;;5094128;28;20257;-82
2021/12/04 00:26:30;;;;;;;13.60;11.13;;;4.10;99.90;;;;;;5092981;28;20414;-82
2021/12/04 00:28:56;;;;;;;19.40;13.70;;;4.10;99.90;;;;;;5094272;28;20452;-83
2021/12/04 00:31:22;;;;;;;19.93;11.87;;;4.10;99.90;;;;;;5094159;28;20514;-82
2021/12/04 00:33:49;;;;;;;16.50;11.10;;;4.10;99.90;;;;;;5094163;28;20165;-82
2021/12/04 00:36:29;;;;;;;15.97;11.60;;;4.10;99.90;;;;;;5093696;28;20179;-83
2021/12/04 00:50:14;;;;;;;17.80;12.63;;;4.10;99.90;;;;;;5093743;28;20414;-83
2021/12/04 00:52:39;;;;;;;17.00;11.30;;;4.10;99.90;;;;;;5093427;28;20406;-83
2021/12/04 00:55:06;;;;;;;14.40;11.13;;;4.10;99.90;;;;;;5093707;28;20177;-84
2021/12/04 00:57:33;;;;;;;18.00;12.87;;;4.10;99.90;;;;;;5093820;28;20494;-84
2021/12/04 00:59:59;;;;;;;18.00;12.60;;;4.20;99.90;;;;;;5093140;28;20485;-83
2021/12/04 01:02:25;;;;;;;18.67;12.43;;;4.20;99.90;;;;;;5092273;28;20418;-82
2021/12/04 01:04:51;;;;;;;19.37;12.90;;;4.20;99.90;;;;;;5092111;28;20484;-82
2021/12/04 01:07:17;;;;;;;16.90;12.53;;;4.20;99.90;;;;;;5093257;28;20456;-84
2021/12/04 01:09:44;;;;;;;22.20;14.10;;;4.10;99.90;;;;;;5093593;28;20767;-83
2021/12/04 01:12:10;;;;;;;15.60;12.10;;;4.10;99.90;;;;;;5093498;28;20494;-83
2021/12/04 01:14:36;;;;;;;20.67;13.83;;;4.20;99.90;;;;;;5093490;28;20422;-82
2021/12/04 01:17:03;;;;;;;19.33;12.37;;;4.20;99.90;;;;;;5093326;28;20484;-82
2021/12/04 01:19:30;;;;;;;19.40;13.70;;;4.20;99.90;;;;;;5093340;28;20517;-82
2021/12/04 01:21:56;;;;;;;22.67;13.97;;;4.20;99.90;;;;;;5091714;28;20430;-83
2021/12/04 01:24:22;;;;;;;21.23;14.13;;;4.20;99.90;;;;;;5093352;28;20472;-83
2021/12/04 01:26:49;;;;;;;20.23;14.33;;;4.20;99.90;;;;;;5093260;28;20415;-83
2021/12/04 01:29:16;;;;;;;16.87;12.03;;;4.20;99.90;;;;;;5092686;28;20454;-81
2021/12/04 01:31:43;;;;;;;20.20;13.80;;;4.20;99.90;;;;;;5091475;28;20959;-82
2021/12/04 01:34:08;;;;;;;17.80;12.67;;;4.20;99.90;;;;;;5093064;28;20429;-82
2021/12/04 01:36:34;;;;;;;17.33;12.77;;;4.20;99.90;;;;;;5092684;28;20406;-82
2021/12/04 01:39:04;;;;;;;17.53;13.03;;;4.20;99.90;;;;;;5092775;28;20230;-81
2021/12/04 01:41:32;;;;;;;15.90;12.90;;;4.20;99.90;;;;;;5089337;28;20426;-82
2021/12/04 01:43:59;;;;;;;20.60;15.23;;;4.20;99.90;;;;;;5076492;28;20548;-82
2021/12/04 01:46:29;;;;;;;19.17;13.20;;;4.20;99.90;;;;;;5092965;28;20535;-83
2021/12/04 01:48:55;;;;;;;21.83;14.63;;;4.20;99.90;;;;;;5092802;28;20777;-83
2021/12/04 01:51:22;;;;;;;21.50;13.40;;;4.20;99.90;;;;;;5092236;28;20919;-83
2021/12/04 01:53:48;;;;;;;18.10;13.13;;;4.20;99.90;;;;;;5092706;28;20467;-82
2021/12/04 01:56:14;;;;;;;16.43;12.57;;;4.30;99.90;;;;;;5092765;28;20407;-82
2021/12/04 01:58:41;;;;;;;17.10;13.20;;;4.30;99.90;;;;;;5092718;28;20417;-83
2021/12/04 02:01:09;;;;;;;19.87;13.10;;;4.30;99.90;;;;;;5091178;28;20259;-82
2021/12/04 02:03:35;;;;;;;18.27;12.90;;;4.30;99.90;;;;;;5092994;28;20981;-83
2021/12/04 02:06:01;;;;;;;19.77;13.03;;;4.30;99.90;;;;;;5101618;28;20478;-83
2021/12/04 02:08:27;;;;;;;18.47;13.43;;;4.30;99.90;;;;;;5113067;28;20790;-83
2021/12/04 02:10:56;;;;;;;16.30;11.80;;;4.30;99.90;;;;;;5113063;28;20192;-83
2021/12/04 02:13:23;;;;;;;19.33;12.87;;;4.30;99.90;;;;;;5117140;27;20176;-83
2021/12/04 02:15:50;;;;;;;17.70;13.67;;;4.30;99.90;;;;;;5115781;28;20924;-83
2021/12/04 02:18:18;;;;;;;19.20;12.93;;;4.30;99.90;;;;;;5115760;28;20919;-83
2021/12/04 02:20:44;;;;;;;17.63;12.87;;;4.30;99.90;;;;;;5117085;28;20409;-83
2021/12/04 02:23:10;;;;;;;21.97;14.83;;;4.30;99.90;;;;;;5115236;28;20456;-83
2021/12/04 02:25:37;;;;;;;18.10;13.40;;;4.30;99.90;;;;;;5116886;28;20681;-83
2021/12/04 02:28:04;;;;;;;18.67;12.73;;;4.30;99.90;;;;;;5116850;28;20409;-83
2021/12/04 02:30:34;;;;;;;21.83;14.20;;;4.30;99.90;;;;;;5116853;28;20748;-82
2021/12/04 02:33:01;;;;;;;18.50;14.47;;;4.30;99.90;;;;;;5116860;28;20405;-83
2021/12/04 02:35:26;;;;;;;17.07;11.83;;;4.30;99.90;;;;;;5115615;28;20452;-82
2021/12/04 02:37:53;;;;;;;20.00;13.40;;;4.30;99.90;;;;;;5116304;28;20825;-82
2021/12/04 02:40:22;;;;;;;20.00;14.93;;;4.30;99.90;;;;;;5110974;28;20195;-83
2021/12/04 02:42:48;;;;;;;17.00;12.30;;;4.30;99.90;;;;;;5094802;28;20944;-82
2021/12/04 02:45:14;;;;;;;20.10;11.90;;;4.30;99.90;;;;;;5096269;28;20428;-82
2021/12/04 02:47:41;;;;;;;15.83;12.07;;;4.30;99.90;;;;;;5096198;28;20421;-82
2021/12/04 02:50:09;;;;;;;18.73;13.13;;;4.30;99.90;;;;;;5096108;28;20426;-82
2021/12/04 02:52:36;;;;;;;18.97;13.80;;;4.30;99.90;;;;;;5095902;28;20422;-82
2021/12/04 02:55:03;;;;;;;21.20;13.70;;;4.30;99.90;;;;;;5096238;28;20418;-81
2021/12/04 02:57:29;;;;;;;21.10;14.03;;;4.30;99.90;;;;;;5095894;28;20830;-82
2021/12/04 02:59:55;;;;;;;20.87;14.77;;;4.30;99.90;;;;;;5096070;28;20414;-82
2021/12/04 03:02:23;;;;;;;18.70;12.70;;;4.30;99.90;;;;;;5096009;28;20175;-81
2021/12/04 03:04:51;;;;;;;18.07;14.03;;;4.30;99.90;;;;;;5095806;28;20470;-82
2021/12/04 03:07:18;;;;;;;20.17;13.50;;;4.30;99.90;;;;;;5094144;28;20426;-82
2021/12/04 03:09:45;;;;;;;20.80;14.00;;;4.30;99.90;;;;;;5095815;28;20441;-83
2021/12/04 03:12:11;;;;;;;19.43;14.10;;;4.30;99.90;;;;;;5095758;28;20427;-82
2021/12/04 03:14:37;;;;;;;21.03;14.43;;;4.30;99.90;;;;;;5095637;28;20418;-82
2021/12/04 03:17:04;;;;;;;18.87;12.90;;;4.30;99.90;;;;;;5095675;28;20895;-81
2021/12/04 03:19:30;;;;;;;21.20;14.67;;;4.30;99.90;;;;;;5095694;28;20639;-82
2021/12/04 03:21:56;;;;;;;23.07;14.33;;;4.30;99.90;;;;;;5094676;28;20456;-81
2021/12/04 03:24:24;;;;;;;20.83;14.93;;;4.30;99.90;;;;;;5095559;28;20559;-82
2021/12/04 03:26:50;;;;;;;21.23;14.17;;;4.30;99.90;;;;;;5077500;28;20480;-82
2021/12/04 03:29:19;;;;;;;21.20;14.47;;;4.30;99.90;;;;;;5095310;28;20504;-82
2021/12/04 03:40:05;;;;;;;23.67;16.10;;;4.20;99.90;;;;;;5095333;28;20417;-81
2021/12/04 03:42:31;;;;;;;22.50;14.90;;;4.30;99.90;;;;;;5095198;28;20426;-81
2021/12/04 03:44:57;;;;;;;23.43;15.70;;;4.30;99.90;;;;;;5095075;28;20554;-81
2021/12/04 03:47:23;;;;;;;21.27;14.50;;;4.30;99.90;;;;;;5095085;28;20411;-82
2021/12/04 03:49:50;;;;;;;23.47;15.00;;;4.30;99.90;;;;;;5093876;28;20256;-81
2021/12/04 03:52:16;;;;;;;22.63;14.47;;;4.30;99.90;;;;;;5094775;28;20399;-81
2021/12/04 03:54:42;;;;;;;24.50;14.77;;;4.30;99.90;;;;;;5093622;28;20425;-82
2021/12/04 03:57:10;;;;;;;21.70;14.83;;;4.30;99.90;;;;;;5094969;28;20544;-82
2021/12/04 03:59:39;;;;;;;22.23;14.20;;;4.30;99.90;;;;;;5094825;28;20411;-83
2021/12/04 04:02:07;;;;;;;17.60;13.03;;;4.30;99.90;;;;;;5094848;28;20403;-82
2021/12/04 04:04:33;;;;;;;21.17;16.40;;;4.30;99.90;;;;;;5094640;28;20458;-82
2021/12/04 04:06:59;;;;;;;25.17;14.93;;;4.20;99.90;;;;;;5094116;28;20407;-83
2021/12/04 04:09:28;;;;;;;22.67;15.60;;;4.30;99.90;;;;;;5094588;28;20174;-82
2021/12/04 04:11:54;;;;;;;25.83;16.20;;;4.30;99.90;;;;;;5094624;28;20406;-83
2021/12/04 04:14:20;;;;;;;20.80;15.17;;;4.20;99.90;;;;;;5094541;28;20431;-82
2021/12/04 04:16:45;;;;;;;19.43;14.33;;;4.20;99.90;;;;;;5094427;28;20444;-82
2021/12/04 04:19:11;;;;;;;21.13;14.10;;;4.30;99.90;;;;;;5094406;28;20588;-82
2021/12/04 04:21:39;;;;;;;22.90;16.77;;;4.20;99.90;;;;;;5093944;28;20256;-82
2021/12/04 04:24:06;;;;;;;22.30;15.83;;;4.20;99.90;;;;;;5094124;28;20470;-82
2021/12/04 04:26:33;;;;;;;26.90;17.33;;;4.20;99.90;;;;;;5094264;28;20819;-82
2021/12/04 04:28:59;;;;;;;23.63;16.60;;;4.20;99.90;;;;;;5094224;28;20411;-83
2021/12/04 04:31:25;;;;;;;21.63;14.67;;;4.20;99.90;;;;;;5094136;28;20417;-82
2021/12/04 04:33:50;;;;;;;22.40;14.83;;;4.20;99.90;;;;;;5093469;28;20430;-82
2021/12/04 04:37:04;;;;;;;26.83;15.47;;;4.20;99.90;;;;;;5093956;28;20199;-82
2021/12/04 05:11:42;;;;;;;21.37;14.33;;;4.20;99.90;;;;;;5073257;28;20418;-82
2021/12/04 05:14:08;;;;;;;20.80;13.03;;;4.20;99.90;;;;;;5073236;28;20407;-81
2021/12/04 05:16:49;;;;;;;25.00;15.40;;;4.10;99.90;;;;;;5073200;28;20457;-83
2021/12/04 05:22:13;;;;;;;21.90;14.63;;;4.20;99.90;;;;;;5063615;28;20432;-83
2021/12/04 05:24:41;;;;;;;16.77;13.17;;;4.20;99.90;;;;;;5073089;28;20538;-82
2021/12/04 05:27:08;;;;;;;18.73;12.73;;;4.20;99.90;;;;;;5073138;28;20405;-84
2021/12/04 05:29:33;;;;;;;20.80;14.17;;;4.10;99.90;;;;;;5073131;28;20416;-84
2021/12/04 05:31:59;;;;;;;20.83;14.43;;;4.20;99.90;;;;;;5073317;28;20404;-84
2021/12/04 05:34:25;;;;;;;17.90;12.43;;;4.10;99.90;;;;;;5073305;28;20162;-84
2021/12/04 05:36:51;;;;;;;19.73;13.73;;;4.10;99.90;;;;;;5072994;28;20396;-86
2021/12/04 05:39:17;;;;;;;21.33;14.33;;;4.10;99.90;;;;;;5073092;28;20213;-84
2021/12/04 05:41:42;;;;;;;17.23;12.63;;;4.10;99.90;;;;;;5088791;28;20633;-88
2021/12/04 05:44:10;;;;;;;18.43;13.33;;;4.10;99.90;;;;;;5073153;28;20215;-84
2021/12/04 05:46:43;;;;;;;17.17;12.87;;;4.10;99.90;;;;;;5078153;28;20165;-87
2021/12/04 05:49:23;;;;;;;19.13;13.63;;;4.10;99.90;;;;;;5078862;28;20419;-85
2021/12/04 05:56:59;;;;;;;15.83;11.47;;;4.10;99.90;;;;;;5080204;28;20564;-89
2021/12/04 05:59:26;;;;;;;21.27;13.83;;;4.10;99.90;;;;;;5079925;28;20919;-84
2021/12/04 06:01:51;;;;;;;21.60;14.17;;;4.10;99.90;;;;;;5078727;28;20954;-84
2021/12/04 06:04:17;;;;;;;19.43;12.73;;;4.10;99.90;;;;;;5095480;28;20498;-88
2021/12/04 06:06:45;;;;;;;25.13;14.70;;;4.10;99.90;;;;;;5078353;28;20177;-84
2021/12/04 06:09:11;;;;;;;19.80;14.20;;;4.10;99.90;;;;;;5080425;28;20169;-91
2021/12/04 06:11:37;;;;;;;20.30;13.37;;;4.10;99.90;;;;;;5080643;28;20415;-86
2021/12/04 06:14:05;;;;;;;23.53;15.00;;;4.10;99.90;;;;;;5080518;28;20231;-92
2021/12/04 06:16:31;;;;;;;21.90;14.37;;;4.10;99.90;;;;;;5080369;28;20246;-91
2021/12/04 06:19:05;;;;;;;23.33;15.67;;;4.10;99.90;;;;;;5096159;28;20450;-85
2021/12/04 06:24:15;;;;;;;24.40;15.10;;;4.10;99.90;;;;;;5080503;28;21020;-87
2021/12/04 06:26:41;;;;;;;23.57;16.90;;;4.00;99.90;;;;;;5080601;28;20403;-91
2021/12/04 06:29:07;;;;;;;24.77;14.97;;;4.10;99.90;;;;;;5080393;28;20422;-90
2021/12/04 06:31:33;;;;;;;28.27;16.20;;;4.10;99.90;;;;;;5096318;28;20580;-91
2021/12/04 06:33:59;;;;;;;24.30;13.47;;;4.10;99.90;;;;;;5080332;28;20253;-90
2021/12/04 06:36:25;;;;;;;24.07;13.90;;;4.10;99.90;;;;;;5095577;28;20789;-87
2021/12/04 06:38:52;;;;;;;24.50;13.60;;;4.00;99.90;;;;;;5080491;28;20464;-90
2021/12/04 06:41:18;;;;;;;23.00;13.53;;;4.00;99.90;;;;;;5079820;28;20423;-85
2021/12/04 06:43:55;;;;;;;20.43;13.80;;;4.00;99.90;;;;;;5096660;28;20461;-86
2021/12/04 06:46:22;;;;;;;22.60;14.23;;;4.00;99.90;;;;;;5120682;27;20164;-86
2021/12/04 06:49:03;;;;;;;23.17;16.47;;;4.00;99.90;;;;;;5120618;27;20427;-87
2021/12/04 06:54:06;;;;;;;21.33;12.20;;;4.00;99.90;;;;;;5121070;27;20514;-89
2021/12/04 06:56:37;;;;;;;22.50;14.90;;;4.10;99.90;;;;;;5120309;27;20459;-90
2021/12/04 06:59:10;;;;;;;21.47;12.40;;;4.10;99.90;;;;;;5117254;28;20410;-90
2021/12/04 07:01:37;;;;;;;21.27;13.27;;;4.00;99.90;;;;;;5116737;28;20445;-90
2021/12/04 07:04:03;;;;;;;20.27;12.90;;;4.10;99.90;;;;;;5117358;28;20497;-91
2021/12/04 07:06:29;;;;;;;20.67;14.40;;;4.10;99.90;;;;;;5116655;28;20416;-89
2021/12/04 07:08:57;;;;;;;27.53;14.67;;;4.10;99.90;;;;;;5117211;28;20414;-87
2021/12/04 07:11:22;;;;;;;21.20;12.30;;;4.10;99.90;;;;;;5117232;28;20189;-89
2021/12/04 07:13:48;;;;;;;21.17;11.33;;;4.10;99.90;;;;;;5116997;28;20413;-87
2021/12/04 07:16:16;;;;;;;20.93;13.03;;;4.10;99.90;;;;;;5116826;28;20620;-86
2021/12/04 07:18:42;;;;;;;15.23;10.10;;;4.10;99.90;;;;;;5116737;28;20247;-88
2021/12/04 07:21:08;;;;;;;19.13;9.43;;;4.10;99.90;;;;;;5116591;28;20543;-88
2021/12/04 07:23:34;;;;;;;16.70;10.67;;;4.10;99.90;;;;;;5116968;28;20191;-89
2021/12/04 07:26:00;;;;;;;13.20;9.67;;;4.10;99.90;;;;;;5116194;28;20271;-90
2021/12/04 07:28:27;;;;;;;14.33;10.60;;;4.10;99.90;;;;;;5116893;28;20644;-88
2021/12/04 07:30:52;;;;;;;15.03;10.40;;;4.10;99.90;;;;;;5117733;28;20416;-90
2021/12/04 07:33:18;;;;;;;14.20;9.83;;;4.10;99.90;;;;;;5117022;28;20412;-87
2021/12/04 07:35:44;;;;;;;16.47;10.80;;;4.10;99.90;;;;;;5114789;28;20179;-90
2021/12/04 07:38:10;;;;;;;17.00;11.70;;;4.10;99.90;;;;;;5116434;28;20242;-90
2021/12/04 07:40:38;;;;;;;13.50;8.97;;;4.10;99.90;;;;;;5125291;27;20948;-90
2021/12/04 07:43:04;;;;;;;15.43;10.77;;;4.10;99.90;;;;;;5085163;28;20423;-89
2021/12/04 07:45:29;;;;;;;17.10;9.03;;;4.20;99.90;;;;;;5075005;28;20419;-89
2021/12/04 07:47:55;;;;;;;13.80;9.60;;;4.20;99.90;;;;;;5075925;28;20165;-90
2021/12/04 07:50:21;;;;;;;15.00;9.97;;;4.20;99.90;;;;;;5074813;28;20174;-90
2021/12/04 07:52:47;;;;;;;18.57;10.63;;;4.20;99.90;;;;;;5075870;28;20174;-88
2021/12/04 07:55:13;;;;;;;12.60;9.57;;;4.20;99.90;;;;;;5075750;28;20777;-90
2021/12/04 07:57:38;;;;;;;16.57;12.10;;;4.20;99.90;;;;;;5075702;28;20440;-89
2021/12/04 08:00:08;;;;;;;15.77;10.23;;;4.20;99.90;;;;;;5075733;28;20173;-90
2021/12/04 08:02:33;;;;;;;14.73;9.40;;;4.30;99.90;;;;;;5074034;28;20538;-88
2021/12/04 08:04:59;;;;;;;12.90;8.80;;;4.20;99.90;;;;;;5073345;28;20478;-88
2021/12/04 08:07:24;;;;;;;14.27;10.27;;;4.20;99.90;;;;;;5075377;28;20255;-90
2021/12/04 08:09:50;;;;;;;13.27;8.30;;;4.20;99.90;;;;;;5086103;28;20204;-88
2021/12/04 08:12:16;;;;;;;13.10;8.57;;;4.30;99.90;;;;;;5080438;28;20180;-87
2021/12/04 08:14:41;;;;;;;18.87;12.23;;;4.30;99.90;;;;;;5095298;28;20279;-88
2021/12/04 08:17:07;;;;;;;15.73;9.33;;;4.30;99.90;;;;;;5095138;28;20929;-89
2021/12/04 08:19:33;;;;;;;14.83;10.10;;;4.20;99.90;;;;;;5085075;28;20185;-90
2021/12/04 08:21:59;;;;;;;12.20;9.67;;;4.20;99.90;;;;;;5073489;28;20173;-90
2021/12/04 08:24:25;;;;;;;13.90;9.13;;;4.20;99.90;;;;;;5074773;28;20208;-90
2021/12/04 08:26:51;;;;;;;14.30;9.53;;;4.20;99.90;;;;;;5090411;28;20419;-90
2021/12/04 08:29:16;;;;;;;16.67;10.40;;;4.30;99.90;;;;;;5074832;28;20750;-91
2021/12/04 08:31:42;;;;;;;13.70;10.00;;;4.40;99.90;;;;;;5073903;28;20682;-91
2021/12/04 08:34:08;;;;;;;16.20;10.30;;;4.30;99.90;;;;;;5074101;28;20181;-91
2021/12/04 08:36:34;;;;;;;13.93;9.90;;;4.30;99.90;;;;;;5074964;28;20761;-91
2021/12/04 08:39:02;;;;;;;15.17;10.60;;;4.30;99.90;;;;;;5090555;28;20913;-90
2021/12/04 08:41:28;;;;;;;16.47;10.13;;;4.40;99.90;;;;;;5074031;28;20164;-90
2021/12/04 08:43:54;;;;;;;14.03;8.43;;;4.40;99.90;;;;;;5075175;28;20516;-88
2021/12/04 08:46:21;;;;;;;18.10;11.17;;;4.30;99.90;;;;;;5075140;28;20170;-90
2021/12/04 08:48:49;;;;;;;18.20;11.77;;;4.30;99.90;;;;;;5074555;28;20418;-88
2021/12/04 08:51:17;;;;;;;15.13;9.63;;;4.40;99.90;;;;;;5073177;28;20476;-87
2021/12/04 08:53:44;;;;;;;17.70;10.80;;;4.40;99.90;;;;;;5074737;28;20450;-89
2021/12/04 08:56:10;;;;;;;16.83;10.20;;;4.40;99.90;;;;;;5073809;28;20460;-89
2021/12/04 08:58:39;;;;;;;13.27;8.50;;;4.40;99.90;;;;;;5073572;28;20903;-89
2021/12/04 09:01:11;;;;;;;16.23;10.77;;;4.40;99.90;;;;;;5073554;28;20172;-89
2021/12/04 09:03:47;;;;;;;16.40;10.37;;;4.40;99.90;;;;;;5074232;28;20443;-90
2021/12/04 09:06:14;;;;;;;16.50;10.10;;;4.40;99.90;;;;;;5074197;28;20540;-89
2021/12/04 09:08:40;;;;;;;17.00;9.40;;;4.40;99.90;;;;;;5074476;28;20919;-89
2021/12/04 09:11:13;;;;;;;14.23;8.73;;;4.40;99.90;;;;;;5074519;28;20415;-90
2021/12/04 09:13:40;;;;;;;17.20;9.80;;;4.40;99.90;;;;;;5074415;28;20421;-89
2021/12/04 09:16:07;;;;;;;15.30;10.60;;;4.40;99.90;;;;;;5075049;28;20496;-90
2021/12/04 09:18:35;;;;;;;14.40;9.57;;;4.50;99.90;;;;;;5074438;28;20419;-89
2021/12/04 09:21:01;;;;;;;11.70;8.00;;;4.50;99.90;;;;;;5096015;28;20425;-88
2021/12/04 09:23:33;;;;;;;13.93;8.77;;;4.60;99.90;;;;;;5099932;28;20458;-88
2021/12/04 09:26:02;;;;;;;13.50;9.10;;;4.50;99.90;;;;;;5084715;28;20411;-88
2021/12/04 09:28:44;;;;;;;15.73;10.60;;;4.50;99.90;;;;;;5099340;28;20505;-88
2021/12/04 10:06:37;;;;;;;14.53;9.27;;;4.60;99.90;;;;;;5073802;28;20394;-91
2021/12/04 10:20:39;;;;;;;15.77;9.27;;;4.50;99.90;;;;;;5073440;28;20490;-88
2021/12/04 10:34:29;;;;;;;11.30;7.57;;;4.60;99.90;;;;;;5077477;28;20410;-90
2021/12/04 10:37:07;;;;;;;11.40;7.10;;;4.50;99.90;;;;;;5092615;28;20426;-90
2021/12/04 10:39:34;;;;;;;10.17;6.00;;;4.50;99.90;;;;;;5073365;28;20520;-90
2021/12/04 10:42:02;;;;;;;12.03;7.20;;;4.60;99.90;;;;;;5076928;28;20431;-89
2021/12/04 10:44:28;;;;;;;10.13;6.23;;;4.60;99.90;;;;;;5077111;28;20498;-88
2021/12/04 10:47:06;;;;;;;13.30;6.77;;;4.60;99.90;;;;;;5076988;28;20411;-90
2021/12/04 10:49:45;;;;;;;13.00;6.33;;;4.60;99.90;;;;;;5076768;28;20466;-91
2021/12/04 10:52:24;;;;;;;11.17;6.90;;;4.50;99.90;;;;;;5075993;28;20423;-89
2021/12/04 10:54:53;;;;;;;11.27;8.50;;;4.40;99.90;;;;;;5077071;28;20426;-88
2021/12/04 11:00:18;;;;;;;10.70;6.60;;;4.40;99.90;;;;;;5077239;28;21129;-91
2021/12/04 11:02:50;;;;;;;20.17;7.57;;;4.40;99.90;;;;;;5077049;28;20399;-87
2021/12/04 11:05:50;;;;;;;10.60;6.60;;;4.50;99.90;;;;;;5075299;28;20477;-88
2021/12/04 11:22:28;;;;;;;13.10;7.67;;;4.50;99.90;;;;;;5076710;28;20422;-91
2021/12/04 11:28:16;;;;;;;13.87;9.50;;;4.50;99.90;;;;;;5076229;28;20445;-91
2021/12/04 11:36:36;;;;;;;14.87;8.50;;;4.50;99.90;;;;;;5076086;28;20955;-87
2021/12/04 11:39:25;;;;;;;15.43;8.50;;;4.60;99.90;;;;;;5076061;28;20465;-90
2021/12/04 11:44:44;;;;;;;12.77;7.93;;;4.60;99.90;;;;;;5075533;28;20475;-87
2021/12/04 11:47:10;;;;;;;14.63;7.80;;;4.70;99.90;;;;;;5074739;28;20415;-91
2021/12/04 11:49:36;;;;;;;14.13;9.40;;;4.60;99.90;;;;;;5091238;28;20430;-91
2021/12/04 11:52:14;;;;;;;13.97;9.83;;;4.60;99.90;;;;;;5075820;28;20412;-89
2021/12/04 11:54:46;;;;;;;11.40;7.97;;;4.70;99.90;;;;;;5074476;28;20506;-92
2021/12/04 11:57:13;;;;;;;13.57;9.60;;;4.60;99.90;;;;;;5075787;28;20419;-92
2021/12/04 11:59:41;;;;;;;12.27;8.93;;;4.60;99.90;;;;;;5075684;28;20403;-88
2021/12/04 12:02:15;;;;;;;11.17;8.17;;;4.50;99.90;;;;;;5075873;28;20412;-91
2021/12/04 12:04:47;;;;;;;15.83;9.00;;;4.50;99.90;;;;;;5075174;28;20800;-88
2021/12/04 12:07:22;;;;;;;18.83;10.20;;;4.40;99.90;;;;;;5091750;28;20753;-90
2021/12/04 12:10:02;;;;;;;15.93;10.90;;;4.40;99.90;;;;;;5075351;28;20407;-88
2021/12/04 12:12:34;;;;;;;14.67;9.80;;;4.40;99.90;;;;;;5075444;28;20395;-89
2021/12/04 12:15:05;;;;;;;15.80;9.50;;;4.40;99.90;;;;;;5091775;28;20419;-87
2021/12/04 12:17:40;;;;;;;13.57;9.70;;;4.50;99.90;;;;;;5076237;28;20407;-87
2021/12/04 12:20:11;;;;;;;14.13;9.10;;;4.50;99.90;;;;;;5090853;28;20441;-89
2021/12/04 12:25:54;;;;;;;19.20;11.23;;;4.50;99.90;;;;;;5075186;28;20552;-91
2021/12/04 12:33:55;;;;;;;19.67;11.70;;;4.40;99.90;;;;;;5075396;28;20421;-90
2021/12/04 12:36:23;;;;;;;13.37;9.07;;;4.40;99.90;;;;;;5074800;28;20408;-87
2021/12/04 12:39:08;;;;;;;15.20;10.30;;;4.40;99.90;;;;;;5074562;28;20459;-90
2021/12/04 12:41:44;;;;;;;15.70;9.80;;;4.50;99.90;;;;;;5083020;28;20459;-88
2021/12/04 12:44:18;;;;;;;16.53;10.63;;;4.50;99.90;;;;;;5095360;28;20992;-88
2021/12/04 12:47:04;;;;;;;13.17;10.27;;;4.40;99.90;;;;;;5114562;28;20428;-88
2021/12/04 12:49:36;;;;;;;16.30;10.03;;;4.40;99.90;;;;;;5105073;28;20413;-90
2021/12/04 12:52:12;;;;;;;16.57;10.47;;;4.40;99.90;;;;;;5098602;28;20451;-90
2021/12/04 12:54:52;;;;;;;17.27;10.53;;;4.50;99.90;;;;;;5093750;28;20437;-89
2021/12/04 12:57:23;;;;;;;21.93;11.57;;;4.50;99.90;;;;;;5094793;28;20406;-91
2021/12/04 13:11:47;;;;;;;16.23;10.27;;;4.50;99.90;;;;;;5094248;28;20406;-88
2021/12/04 13:14:23;;;;;;;12.67;9.13;;;4.50;99.90;;;;;;5093295;28;20425;-89
2021/12/04 13:16:51;;;;;;;15.80;10.17;;;4.50;99.90;;;;;;5093348;28;20960;-90
2021/12/04 13:19:20;;;;;;;18.00;9.93;;;4.50;99.90;;;;;;5092835;28;20428;-90
2021/12/04 13:21:50;;;;;;;18.83;10.57;;;4.50;99.90;;;;;;5092882;28;20968;-91
2021/12/04 13:24:16;;;;;;;14.90;9.83;;;4.50;99.90;;;;;;5094145;28;20872;-91
2021/12/04 13:26:46;;;;;;;17.33;10.20;;;4.60;99.90;;;;;;5092953;28;20830;-90
2021/12/04 13:29:16;;;;;;;11.77;8.40;;;4.50;99.90;;;;;;5093024;28;20431;-88
2021/12/04 13:31:42;;;;;;;11.13;7.30;;;4.60;99.90;;;;;;5092831;28;20410;-89
2021/12/04 13:34:11;;;;;;;13.03;8.47;;;4.60;99.90;;;;;;5093415;28;20902;-90
2021/12/04 13:36:37;;;;;;;11.57;8.27;;;4.60;99.90;;;;;;5093765;28;20415;-91
2021/12/04 13:39:09;;;;;;;17.67;8.83;;;4.70;99.90;;;;;;5092524;28;20466;-90
2021/12/04 13:41:37;;;;;;;13.10;8.67;;;4.70;99.90;;;;;;5092682;28;20414;-90
2021/12/04 13:44:06;;;;;;;12.73;7.77;;;4.70;99.90;;;;;;5092983;28;20457;-90
2021/12/04 13:46:42;;;;;;;10.60;6.80;;;4.70;99.90;;;;;;5094363;28;20417;-92
2021/12/04 13:49:09;;;;;;;10.93;7.90;;;4.60;99.90;;;;;;5093779;28;20408;-91
2021/12/04 13:51:34;;;;;;;9.37;7.63;;;4.70;99.90;;;;;;5094055;28;20419;-89
2021/12/04 13:54:02;;;;;;;10.00;6.53;;;4.60;99.90;;;;;;5093951;28;20437;-90
2021/12/04 13:56:28;;;;;;;11.93;7.20;;;4.60;99.90;;;;;;5093724;28;20167;-89
2021/12/04 13:58:57;;;;;;;7.93;6.00;;;4.60;99.90;;;;;;5093846;28;20408;-88
2021/12/04 14:01:25;;;;;;;10.13;7.10;;;4.60;99.90;;;;;;5092760;28;20464;-91
2021/12/04 14:03:58;;;;;;;9.40;6.77;;;4.50;99.90;;;;;;5092560;28;20466;-87
2021/12/04 14:06:24;;;;;;;11.17;8.20;;;4.50;99.90;;;;;;5093285;28;20812;-90
2021/12/04 14:09:05;;;;;;;9.80;6.80;;;4.60;99.90;;;;;;5097078;28;20430;-92
2021/12/04 14:11:35;;;;;;;10.37;8.10;;;4.60;99.90;;;;;;5097003;28;20418;-91
2021/12/04 14:14:18;;;;;;;10.67;6.53;;;4.60;99.90;;;;;;5096877;28;20472;-91
2021/12/04 14:16:45;;;;;;;10.27;6.40;;;4.60;99.90;;;;;;5097997;28;20443;-90
2021/12/04 14:19:35;;;;;;;11.93;8.03;;;4.60;99.90;;;;;;5096686;28;20456;-91
2021/12/04 14:22:04;;;;;;;12.17;7.70;;;4.60;99.90;;;;;;5097696;28;20513;-90
2021/12/04 14:24:42;;;;;;;11.93;8.00;;;4.60;99.90;;;;;;5096776;28;20544;-89
2021/12/04 14:27:15;;;;;;;12.93;8.93;;;4.60;99.90;;;;;;5096926;28;20458;-89
2021/12/04 14:29:47;;;;;;;15.93;11.50;;;4.60;99.90;;;;;;5096823;28;20420;-90
2021/12/04 14:32:14;;;;;;;13.10;9.57;;;4.50;99.90;;;;;;5096410;28;20440;-89
2021/12/04 14:34:39;;;;;;;15.70;9.40;;;4.40;99.90;;;;;;5095861;28;20410;-90
2021/12/04 14:37:11;;;;;;;16.30;9.97;;;4.40;99.90;;;;;;5096638;28;20478;-89
2021/12/04 14:39:39;;;;;;;16.33;9.20;;;4.40;99.90;;;;;;5096102;28;20220;-89
2021/12/04 14:42:17;;;;;;;19.37;11.40;;;4.40;99.90;;;;;;5096407;28;20418;-91
2021/12/04 14:44:49;;;;;;;14.23;9.40;;;4.50;99.90;;;;;;5096359;28;20852;-90
2021/12/04 14:47:16;;;;;;;13.40;8.97;;;4.50;99.90;;;;;;5096850;28;20446;-87
2021/12/04 14:49:46;;;;;;;14.00;8.30;;;4.50;99.90;;;;;;5096979;28;20422;-87
2021/12/04 14:52:24;;;;;;;10.90;7.60;;;4.40;99.90;;;;;;5096950;28;20402;-89
2021/12/04 14:54:50;;;;;;;10.17;7.07;;;4.50;99.90;;;;;;5096190;28;20519;-91
2021/12/04 14:57:22;;;;;;;12.90;8.33;;;4.50;99.90;;;;;;5095988;28;20457;-88
2021/12/04 15:00:05;;;;;;;8.83;7.20;;;4.40;99.90;;;;;;5096531;28;20422;-91
2021/12/04 15:02:31;;;;;;;10.07;6.43;;;4.50;99.90;;;;;;5097471;28;20533;-91
2021/12/04 15:04:56;;;;;;;9.33;6.30;;;4.40;99.90;;;;;;5096273;28;20533;-90
2021/12/04 15:07:28;;;;;;;13.10;6.67;;;4.40;99.90;;;;;;5097421;28;20173;-91
2021/12/04 15:09:54;;;;;;;8.10;6.23;;;4.40;99.90;;;;;;5097574;28;20231;-93
2021/12/04 15:12:34;;;;;;;9.60;5.90;;;4.50;99.90;;;;;;5097194;28;20414;-87
2021/12/04 15:15:07;;;;;;;9.93;6.50;;;4.50;99.90;;;;;;5096670;28;20237;-88
2021/12/04 15:17:33;;;;;;;9.27;5.10;;;4.50;99.90;;;;;;5095964;28;20411;-89
2021/12/04 15:20:11;;;;;;;9.17;6.20;;;4.40;99.90;;;;;;5095111;28;20418;-93
2021/12/04 15:22:44;;;;;;;8.87;5.90;;;4.40;99.90;;;;;;5095899;28;20426;-89
2021/12/04 15:25:10;;;;;;;10.40;6.07;;;4.40;99.90;;;;;;5095757;28;20906;-92
2021/12/04 15:27:36;;;;;;;9.50;6.63;;;4.40;99.90;;;;;;5095335;28;20496;-91
2021/12/04 15:30:05;;;;;;;12.00;6.03;;;4.40;99.90;;;;;;5095810;28;20561;-92
2021/12/04 15:32:31;;;;;;;9.40;6.20;;;4.40;99.90;;;;;;5096576;28;20370;-90
2021/12/04 15:35:14;;;;;;;9.73;5.43;;;4.40;99.90;;;;;;5095242;28;20517;-90
2021/12/04 15:37:49;;;;;;;9.43;6.40;;;4.50;99.90;;;;;;5095232;28;20469;-90
2021/12/04 15:40:31;;;;;;;7.57;5.73;;;4.50;99.90;;;;;;5096658;28;20785;-91
2021/12/04 15:45:45;;;;;;;7.60;4.73;;;4.40;99.90;;;;;;5109480;28;20477;-87